Time;durP1;ratioP1;P1;durP2;ratioP2;P2;SDS_P1;SDS_P2;PMS_P1;PMS_P2;Temp;Humidity;BMP_temperature;BMP_pressure;BME280_temperature;BME280_humidity;BME280_pressure;Samples;Min_cycle;Max_cycle;Signal;HPM_P1;HPM_P2
2022/01/03 00:00:50;;;;;;;1.45;0.98;;;12.40;63.30;;;;;;5014564;28;20022;-78
2022/01/03 00:03:17;;;;;;;1.08;0.68;;;12.40;63.50;;;;;;5013785;28;20164;-77
2022/01/03 00:05:43;;;;;;;1.80;0.35;;;12.30;63.70;;;;;;5018182;28;20101;-78
2022/01/03 00:08:09;;;;;;;0.35;0.35;;;12.30;63.90;;;;;;5016936;28;20087;-78
2022/01/03 00:10:35;;;;;;;0.25;0.25;;;12.30;64.10;;;;;;5016959;28;20541;-77
2022/01/03 00:13:03;;;;;;;2.05;0.60;;;12.30;64.40;;;;;;5018431;28;20030;-78
2022/01/03 00:15:29;;;;;;;0.47;0.47;;;12.30;64.90;;;;;;5000845;28;20088;-77
2022/01/03 00:17:55;;;;;;;0.20;0.20;;;12.20;65.10;;;;;;5018237;28;20393;-78
2022/01/03 00:20:22;;;;;;;0.40;0.40;;;12.10;65.70;;;;;;5000704;28;20024;-77
2022/01/03 00:23:01;;;;;;;0.10;0.10;;;12.00;65.80;;;;;;5000562;28;20034;-77
2022/01/03 00:25:28;;;;;;;0.30;0.30;;;12.00;66.20;;;;;;5018140;28;20036;-78
2022/01/03 00:28:23;;;;;;;0.20;0.20;;;11.90;66.30;;;;;;5017722;28;20516;-77
2022/01/03 00:30:53;;;;;;;0.52;0.47;;;11.90;66.60;;;;;;5016627;28;20037;-77
2022/01/03 00:33:20;;;;;;;0.20;0.20;;;11.90;66.90;;;;;;5016989;28;20485;-77
2022/01/03 00:35:53;;;;;;;2.15;0.60;;;11.80;67.10;;;;;;5017253;28;20022;-78
2022/01/03 00:38:21;;;;;;;0.35;0.35;;;11.80;67.30;;;;;;5016509;28;20083;-78
2022/01/03 00:40:47;;;;;;;2.25;0.85;;;11.80;67.90;;;;;;5017653;28;20026;-78
2022/01/03 00:43:16;;;;;;;0.20;0.20;;;11.70;68.00;;;;;;5016582;28;20112;-77
2022/01/03 00:45:42;;;;;;;1.33;1.08;;;11.70;68.20;;;;;;5016363;28;20026;-78
2022/01/03 00:48:10;;;;;;;0.40;0.40;;;11.60;68.40;;;;;;5017723;28;20026;-77
2022/01/03 00:50:36;;;;;;;0.55;0.55;;;11.60;68.50;;;;;;5017609;28;20386;-78
2022/01/03 00:53:03;;;;;;;0.43;0.43;;;11.60;68.70;;;;;;5017037;28;20022;-78
2022/01/03 00:55:28;;;;;;;0.10;0.10;;;11.60;69.00;;;;;;5017391;28;20058;-76
2022/01/03 00:58:00;;;;;;;0.32;0.32;;;11.60;68.80;;;;;;4999692;28;20026;-77
2022/01/03 01:00:30;;;;;;;0.20;0.20;;;11.50;68.90;;;;;;5017180;28;20018;-78
2022/01/03 01:03:12;;;;;;;1.58;1.08;;;11.50;69.30;;;;;;5016759;28;20018;-77
2022/01/03 01:05:38;;;;;;;;;;;11.50;69.40;;;;;;5016313;28;20417;-78
2022/01/03 01:08:05;;;;;;;0.75;0.55;;;11.40;69.90;;;;;;5015324;28;20286;-78
2022/01/03 01:10:37;;;;;;;1.45;1.10;;;11.40;69.70;;;;;;4999370;28;20489;-77
2022/01/03 01:13:08;;;;;;;2.13;0.85;;;11.40;69.80;;;;;;4999487;28;20116;-77
2022/01/03 01:15:35;;;;;;;0.20;0.20;;;11.50;70.10;;;;;;5017077;28;20109;-78
2022/01/03 01:18:04;;;;;;;0.52;0.30;;;11.30;70.20;;;;;;5016692;28;20437;-77
2022/01/03 01:20:31;;;;;;;0.30;0.30;;;11.30;70.50;;;;;;5015783;28;20385;-76
2022/01/03 01:23:02;;;;;;;1.20;1.10;;;11.30;70.80;;;;;;5015686;28;20172;-77
2022/01/03 01:28:08;;;;;;;0.40;0.32;;;11.20;71.10;;;;;;5015879;28;20029;-78
2022/01/03 01:30:34;;;;;;;0.13;0.13;;;11.20;71.20;;;;;;5016399;28;20084;-77
2022/01/03 01:33:10;;;;;;;0.85;0.82;;;11.20;71.40;;;;;;5015563;28;20497;-76
2022/01/03 01:35:48;;;;;;;0.70;0.52;;;11.20;71.30;;;;;;5015676;28;20030;-77
2022/01/03 01:38:28;;;;;;;0.55;0.55;;;11.20;71.40;;;;;;5015174;28;20030;-78
2022/01/03 01:40:56;;;;;;;0.20;0.20;;;11.10;71.50;;;;;;5015209;28;20026;-77
2022/01/03 01:43:43;;;;;;;0.68;0.65;;;11.20;71.50;;;;;;5015479;28;20036;-77
2022/01/03 01:46:17;;;;;;;0.30;0.30;;;11.10;71.30;;;;;;5014736;28;20033;-77
2022/01/03 01:48:48;;;;;;;1.75;0.55;;;11.20;71.40;;;;;;5014898;28;20033;-78
2022/01/03 01:51:15;;;;;;;0.50;0.50;;;11.10;71.30;;;;;;5014903;28;20022;-77
2022/01/03 01:53:48;;;;;;;1.48;0.28;;;11.10;71.50;;;;;;5016158;28;20025;-77
2022/01/03 01:56:25;;;;;;;0.47;0.47;;;11.10;71.70;;;;;;5015103;28;20479;-78
2022/01/03 01:59:15;;;;;;;3.30;0.90;;;11.10;72.50;;;;;;5016095;28;20091;-77
2022/01/03 02:02:06;;;;;;;0.30;0.30;;;11.10;71.70;;;;;;5014971;28;20030;-77
2022/01/03 02:04:42;;;;;;;0.25;0.25;;;11.10;71.70;;;;;;5014557;28;20080;-76
2022/01/03 02:07:57;;;;;;;0.60;0.55;;;11.10;71.80;;;;;;5015619;28;20030;-77
2022/01/03 02:10:33;;;;;;;0.40;0.40;;;11.20;72.00;;;;;;5014852;28;20049;-75
2022/01/03 02:13:01;;;;;;;0.82;0.45;;;11.10;72.30;;;;;;5014706;28;20128;-77
2022/01/03 02:15:27;;;;;;;0.52;0.52;;;11.10;72.60;;;;;;5014895;28;20029;-77
2022/01/03 02:17:53;;;;;;;1.83;1.02;;;11.10;72.80;;;;;;4998082;28;20036;-76
2022/01/03 02:20:21;;;;;;;2.60;1.48;;;11.00;73.00;;;;;;5014757;28;20014;-76
2022/01/03 02:22:48;;;;;;;0.73;0.50;;;11.00;73.40;;;;;;5014043;28;20388;-76
2022/01/03 02:25:16;;;;;;;4.57;1.60;;;11.00;73.80;;;;;;5016031;28;20044;-77
2022/01/03 02:27:43;;;;;;;0.20;0.20;;;11.00;74.10;;;;;;5013584;28;20021;-77
2022/01/03 02:30:12;;;;;;;0.63;0.40;;;11.00;74.50;;;;;;5015370;28;20363;-78
2022/01/03 02:32:38;;;;;;;1.05;0.70;;;10.90;74.60;;;;;;5014270;28;20049;-77
2022/01/03 02:35:05;;;;;;;22.05;0.80;;;10.80;75.50;;;;;;4997955;28;20022;-77
2022/01/03 02:37:31;;;;;;;2.28;1.00;;;10.80;76.30;;;;;;5013771;28;20026;-78
2022/01/03 02:39:57;;;;;;;0.80;0.77;;;10.70;77.10;;;;;;5014910;28;20026;-78
2022/01/03 02:42:25;;;;;;;1.48;0.50;;;10.70;78.10;;;;;;5013731;28;20029;-77
2022/01/03 02:45:09;;;;;;;0.40;0.40;;;10.60;78.70;;;;;;4997351;28;20022;-77
2022/01/03 02:47:35;;;;;;;7.82;0.90;;;10.60;79.00;;;;;;5015506;28;20026;-78
2022/01/03 02:50:03;;;;;;;0.32;0.32;;;10.60;79.40;;;;;;5013479;28;20029;-77
2022/01/03 02:52:29;;;;;;;0.30;0.30;;;10.50;80.00;;;;;;5015137;28;20022;-78
2022/01/03 02:54:56;;;;;;;0.20;0.20;;;10.50;80.10;;;;;;5013837;28;20096;-76
2022/01/03 02:57:24;;;;;;;0.35;0.35;;;10.50;80.40;;;;;;5013297;28;20580;-78
2022/01/03 02:59:57;;;;;;;1.85;0.85;;;10.50;80.60;;;;;;5014378;28;20074;-76
2022/01/03 03:02:24;;;;;;;2.45;1.08;;;10.40;80.70;;;;;;5013264;28;20025;-77
2022/01/03 03:04:59;;;;;;;0.73;0.30;;;10.40;81.00;;;;;;5013518;28;20030;-77
2022/01/03 03:07:27;;;;;;;3.40;0.88;;;10.40;81.30;;;;;;5014521;28;20537;-78
2022/01/03 03:09:53;;;;;;;0.75;0.75;;;10.40;81.60;;;;;;5014625;28;20052;-76
2022/01/03 03:12:20;;;;;;;0.43;0.35;;;10.40;82.10;;;;;;5013401;28;20029;-77
2022/01/03 03:14:45;;;;;;;0.75;0.75;;;10.40;82.10;;;;;;5013210;28;20087;-77
2022/01/03 03:17:11;;;;;;;0.57;0.57;;;10.30;82.50;;;;;;5012950;28;20129;-78
2022/01/03 03:19:49;;;;;;;0.57;0.50;;;10.30;82.80;;;;;;4996507;28;20029;-76
2022/01/03 03:22:15;;;;;;;0.30;0.28;;;10.30;82.90;;;;;;5014344;28;20018;-77
2022/01/03 03:24:41;;;;;;;2.10;0.85;;;10.40;83.10;;;;;;5014703;28;20045;-77
2022/01/03 03:27:11;;;;;;;3.00;0.35;;;10.30;83.30;;;;;;5012674;28;20025;-76
2022/01/03 03:29:46;;;;;;;0.20;0.20;;;10.30;83.80;;;;;;5013776;28;20033;-76
2022/01/03 03:32:12;;;;;;;7.22;0.85;;;10.40;83.90;;;;;;5013164;28;20026;-77
2022/01/03 03:34:38;;;;;;;0.20;0.20;;;10.30;84.30;;;;;;4996647;28;20029;-77
2022/01/03 03:37:04;;;;;;;1.25;0.63;;;10.30;84.50;;;;;;5012440;28;20049;-77
2022/01/03 03:39:33;;;;;;;0.20;0.20;;;10.30;84.90;;;;;;5012230;28;20048;-78
2022/01/03 03:42:00;;;;;;;0.40;0.40;;;10.30;85.30;;;;;;5012975;28;20053;-76
2022/01/03 03:44:26;;;;;;;0.52;0.30;;;10.30;85.00;;;;;;5013008;28;20026;-78
2022/01/03 03:46:52;;;;;;;2.85;0.55;;;10.30;85.20;;;;;;5014360;28;20036;-76
2022/01/03 03:49:18;;;;;;;0.20;0.20;;;10.30;85.70;;;;;;5014039;28;20022;-77
2022/01/03 03:51:44;;;;;;;0.32;0.32;;;10.30;85.90;;;;;;5013147;28;20026;-78
2022/01/03 03:54:09;;;;;;;5.47;0.50;;;10.30;85.80;;;;;;5012947;28;20033;-77
2022/01/03 03:56:35;;;;;;;0.17;0.17;;;10.30;86.10;;;;;;5013434;28;20037;-78
2022/01/03 03:59:01;;;;;;;0.20;0.20;;;10.40;86.10;;;;;;5014362;28;20026;-78
2022/01/03 04:01:27;;;;;;;1.58;0.70;;;10.40;86.00;;;;;;5014371;28;20018;-78
2022/01/03 04:03:52;;;;;;;0.85;0.30;;;10.20;86.70;;;;;;5013106;28;20022;-77
2022/01/03 04:06:19;;;;;;;4.30;0.52;;;10.20;87.10;;;;;;5012623;28;20400;-78
2022/01/03 04:08:47;;;;;;;2.78;0.60;;;10.20;87.40;;;;;;5042900;23;20065;-94
2022/01/03 04:11:32;;;;;;;1.55;1.27;;;10.20;87.60;;;;;;5019374;28;20006;-94
2022/01/03 04:14:07;;;;;;;7.07;0.88;;;10.20;87.70;;;;;;5035783;28;20038;-93
2022/01/03 04:16:39;;;;;;;1.27;1.17;;;10.20;87.80;;;;;;5046706;23;20041;-75
2022/01/03 04:19:05;;;;;;;0.63;0.35;;;10.30;88.00;;;;;;5030332;28;20033;-75
2022/01/03 04:21:31;;;;;;;1.85;0.88;;;10.30;87.90;;;;;;5030319;28;20370;-75
2022/01/03 04:23:57;;;;;;;0.88;0.35;;;10.20;87.50;;;;;;5013865;28;20021;-75
2022/01/03 04:26:23;;;;;;;0.35;0.35;;;10.20;87.40;;;;;;5030156;28;20053;-75
2022/01/03 04:28:49;;;;;;;1.08;0.68;;;10.30;87.20;;;;;;5030096;28;20396;-75
2022/01/03 04:31:15;;;;;;;0.30;0.20;;;10.20;87.40;;;;;;5031389;28;20028;-75
2022/01/03 04:33:42;;;;;;;0.55;0.50;;;10.30;87.20;;;;;;5013839;28;20037;-75
2022/01/03 04:36:09;;;;;;;0.20;0.20;;;10.30;87.20;;;;;;5030311;28;20030;-75
2022/01/03 04:38:36;;;;;;;0.73;0.55;;;10.30;87.00;;;;;;5046796;28;20049;-75
2022/01/03 04:41:02;;;;;;;14.85;1.00;;;10.30;86.80;;;;;;5031464;28;20018;-76
2022/01/03 04:43:28;;;;;;;0.90;0.52;;;10.40;86.50;;;;;;5031458;28;20100;-75
2022/01/03 04:45:56;;;;;;;0.20;0.20;;;10.30;86.30;;;;;;5031398;28;20446;-75
2022/01/03 04:48:23;;;;;;;1.55;0.43;;;10.30;86.00;;;;;;5031265;28;20476;-75
2022/01/03 04:50:49;;;;;;;0.25;0.25;;;10.40;86.30;;;;;;5034130;28;20056;-75
2022/01/03 04:53:15;;;;;;;0.20;0.20;;;10.40;85.80;;;;;;5033719;28;20060;-75
2022/01/03 04:55:40;;;;;;;0.10;0.10;;;10.30;85.40;;;;;;5034874;28;20052;-75
2022/01/03 04:58:08;;;;;;;7.03;0.77;;;10.40;85.60;;;;;;5017126;28;20025;-75
2022/01/03 05:00:34;;;;;;;1.23;0.57;;;10.40;85.30;;;;;;5034730;28;20021;-75
2022/01/03 05:03:00;;;;;;;0.65;0.32;;;10.40;85.10;;;;;;5033550;28;20051;-75
2022/01/03 05:05:25;;;;;;;2.05;0.30;;;10.40;85.00;;;;;;5016909;28;20063;-75
2022/01/03 05:07:51;;;;;;;0.52;0.35;;;10.30;85.00;;;;;;5034699;28;20030;-75
2022/01/03 05:10:17;;;;;;;1.38;1.15;;;10.40;85.10;;;;;;5034602;28;20029;-75
2022/01/03 05:12:43;;;;;;;1.50;0.70;;;10.40;84.80;;;;;;5034606;28;20032;-75
2022/01/03 05:15:09;;;;;;;2.10;0.95;;;10.30;84.90;;;;;;5034504;28;20028;-75
2022/01/03 05:17:34;;;;;;;0.10;0.10;;;10.30;84.90;;;;;;5032968;28;20041;-75
2022/01/03 05:20:00;;;;;;;0.20;0.20;;;10.30;85.10;;;;;;5034614;28;20022;-75
2022/01/03 05:22:26;;;;;;;0.10;0.10;;;10.40;85.10;;;;;;5016677;28;20469;-75
2022/01/03 05:24:52;;;;;;;0.70;0.30;;;10.40;85.10;;;;;;5034489;28;20539;-75
2022/01/03 05:27:17;;;;;;;0.20;0.20;;;10.40;84.60;;;;;;5033146;28;20033;-75
2022/01/03 05:29:43;;;;;;;4.40;0.68;;;10.40;84.70;;;;;;5032786;28;20362;-76
2022/01/03 05:32:09;;;;;;;3.95;1.05;;;10.30;84.90;;;;;;5034146;28;20033;-75
2022/01/03 05:34:35;;;;;;;0.22;0.22;;;10.30;84.90;;;;;;5033062;28;20080;-75
2022/01/03 05:37:01;;;;;;;0.20;0.20;;;10.30;85.40;;;;;;5034042;28;20025;-75
2022/01/03 05:39:26;;;;;;;1.65;0.30;;;10.20;85.40;;;;;;5032721;28;20025;-75
2022/01/03 05:41:52;;;;;;;0.65;0.65;;;10.20;85.50;;;;;;5049455;28;20485;-75
2022/01/03 05:44:18;;;;;;;0.90;0.55;;;10.20;85.80;;;;;;5032591;28;20167;-75
2022/01/03 05:46:44;;;;;;;0.10;0.10;;;10.20;85.70;;;;;;5032436;28;20094;-75
2022/01/03 05:49:11;;;;;;;0.57;0.55;;;10.20;85.80;;;;;;5032668;28;20021;-75
2022/01/03 05:51:37;;;;;;;9.18;0.70;;;10.20;85.80;;;;;;5033923;28;20079;-75
2022/01/03 05:54:04;;;;;;;0.20;0.20;;;10.10;86.90;;;;;;5032690;28;20124;-75
2022/01/03 05:56:30;;;;;;;0.20;0.20;;;10.10;86.50;;;;;;5033542;28;20024;-75
2022/01/03 05:58:56;;;;;;;3.30;0.40;;;10.10;86.50;;;;;;5032420;28;20496;-75
2022/01/03 06:01:23;;;;;;;0.47;0.25;;;10.10;86.20;;;;;;5031420;28;20284;-75
2022/01/03 06:03:58;;;;;;;0.20;0.20;;;10.20;86.40;;;;;;5033719;28;20103;-75
2022/01/03 06:06:53;;;;;;;0.25;0.25;;;10.20;86.60;;;;;;5032258;28;20484;-75
2022/01/03 06:09:17;;;;;;;1.40;0.55;;;10.20;86.40;;;;;;5033163;28;20022;-75
2022/01/03 06:11:43;;;;;;;3.05;0.63;;;10.20;86.40;;;;;;5033469;28;20037;-75
2022/01/03 06:14:09;;;;;;;1.02;1.02;;;10.20;86.60;;;;;;5033416;28;20021;-75
2022/01/03 06:16:34;;;;;;;1.38;0.40;;;10.10;86.80;;;;;;5031969;28;20404;-75
2022/01/03 06:19:00;;;;;;;0.20;0.20;;;10.10;86.70;;;;;;5031956;28;20035;-75
2022/01/03 06:21:26;;;;;;;3.38;0.47;;;10.00;86.90;;;;;;5033289;28;20022;-75
2022/01/03 06:23:52;;;;;;;0.20;0.20;;;10.00;87.00;;;;;;5033836;28;20034;-75
2022/01/03 06:26:17;;;;;;;0.65;0.40;;;10.00;87.40;;;;;;5033216;28;20025;-75
2022/01/03 06:28:43;;;;;;;0.17;0.17;;;10.10;86.90;;;;;;5032054;28;20511;-75
2022/01/03 06:31:09;;;;;;;2.90;0.90;;;10.10;87.00;;;;;;5031756;28;20044;-75
2022/01/03 06:33:34;;;;;;;6.63;1.02;;;10.10;87.10;;;;;;5033011;28;20037;-75
2022/01/03 06:36:00;;;;;;;2.50;0.32;;;10.10;87.20;;;;;;5032832;28;20087;-76
2022/01/03 06:38:26;;;;;;;0.20;0.20;;;10.00;87.50;;;;;;5031402;28;20030;-75
2022/01/03 06:40:52;;;;;;;3.20;1.55;;;10.00;87.60;;;;;;5031545;28;20028;-75
2022/01/03 06:43:18;;;;;;;0.28;0.28;;;10.00;87.40;;;;;;5033071;28;20021;-75
2022/01/03 06:45:44;;;;;;;0.73;0.60;;;10.10;87.50;;;;;;5047841;28;20018;-75
2022/01/03 06:48:09;;;;;;;0.20;0.20;;;10.00;87.20;;;;;;5031225;28;20032;-75
2022/01/03 06:50:36;;;;;;;0.40;0.40;;;10.00;87.30;;;;;;5031318;28;20033;-75
2022/01/03 06:53:02;;;;;;;0.20;0.20;;;10.00;87.40;;;;;;5031357;28;20128;-75
2022/01/03 06:55:28;;;;;;;2.22;0.32;;;10.00;87.40;;;;;;5031115;28;20112;-75
2022/01/03 06:57:54;;;;;;;0.30;0.30;;;10.10;87.10;;;;;;5032376;28;20021;-75
2022/01/03 07:00:19;;;;;;;2.63;1.00;;;10.10;86.70;;;;;;5031006;28;20026;-75
2022/01/03 07:02:45;;;;;;;0.60;0.60;;;10.00;86.70;;;;;;5047764;28;20021;-75
2022/01/03 07:05:13;;;;;;;1.55;0.50;;;10.00;86.60;;;;;;5032330;28;20509;-75
2022/01/03 07:07:39;;;;;;;9.55;0.55;;;10.00;86.70;;;;;;5032401;28;20026;-75
2022/01/03 07:10:06;;;;;;;0.20;0.20;;;10.00;86.60;;;;;;5031038;28;20025;-75
2022/01/03 07:12:33;;;;;;;0.52;0.50;;;10.10;86.80;;;;;;5030873;28;20033;-75
2022/01/03 07:20:10;;;;;;;0.35;0.35;;;10.10;85.70;;;;;;5030801;28;20026;-75
2022/01/03 07:22:40;;;;;;;1.92;0.50;;;10.10;85.90;;;;;;5031996;28;20481;-76
2022/01/03 07:25:09;;;;;;;2.17;0.82;;;10.00;86.00;;;;;;5030961;28;20485;-75
2022/01/03 07:27:35;;;;;;;0.35;0.22;;;10.00;86.20;;;;;;5030562;28;20287;-75
2022/01/03 07:30:01;;;;;;;0.20;0.20;;;10.00;86.40;;;;;;5030348;28;20021;-75
2022/01/03 07:32:27;;;;;;;13.52;2.33;;;10.00;86.30;;;;;;5014243;28;20382;-75
2022/01/03 07:34:53;;;;;;;1.35;1.10;;;10.00;86.30;;;;;;5032068;28;20032;-75
2022/01/03 07:37:18;;;;;;;13.60;1.05;;;10.10;86.20;;;;;;5030353;28;20084;-76
2022/01/03 07:39:44;;;;;;;6.32;0.90;;;10.10;85.70;;;;;;5047455;28;20025;-75
2022/01/03 07:42:10;;;;;;;0.20;0.20;;;10.00;86.00;;;;;;5031864;28;20512;-75
2022/01/03 07:44:35;;;;;;;5.15;0.52;;;10.10;86.10;;;;;;5047264;28;20033;-75
2022/01/03 07:47:01;;;;;;;4.40;1.02;;;10.10;85.90;;;;;;5030525;28;20054;-75
2022/01/03 07:49:27;;;;;;;0.30;0.30;;;10.10;86.10;;;;;;5031495;28;20396;-76
2022/01/03 07:51:53;;;;;;;1.55;0.90;;;10.10;86.10;;;;;;5031771;28;20111;-75
2022/01/03 07:54:19;;;;;;;6.40;0.68;;;10.10;86.10;;;;;;5030422;28;20085;-75
2022/01/03 07:56:45;;;;;;;2.97;0.85;;;10.10;86.10;;;;;;5030268;28;20507;-75
2022/01/03 07:59:11;;;;;;;0.57;0.57;;;10.10;86.20;;;;;;5031783;28;20020;-75
2022/01/03 08:01:40;;;;;;;0.13;0.13;;;10.10;86.30;;;;;;5030672;28;20018;-75
2022/01/03 08:04:07;;;;;;;5.13;0.73;;;10.10;86.10;;;;;;5030229;28;20076;-75
2022/01/03 08:06:33;;;;;;;0.43;0.43;;;10.10;86.20;;;;;;5031421;28;20021;-75
2022/01/03 08:08:59;;;;;;;0.57;0.43;;;10.10;86.30;;;;;;5030324;28;20029;-75
2022/01/03 08:11:26;;;;;;;4.00;0.55;;;10.10;86.20;;;;;;5031564;28;20385;-75
2022/01/03 08:13:53;;;;;;;0.10;0.10;;;10.20;86.10;;;;;;5030245;28;20491;-75
2022/01/03 08:16:19;;;;;;;6.60;0.30;;;10.20;86.20;;;;;;5031510;28;20053;-75
2022/01/03 08:18:45;;;;;;;0.22;0.22;;;10.20;85.70;;;;;;5031343;28;20064;-75
2022/01/03 08:21:13;;;;;;;0.20;0.20;;;10.30;85.70;;;;;;5030122;28;20422;-75
2022/01/03 08:23:40;;;;;;;0.20;0.20;;;10.30;85.80;;;;;;5031701;28;20048;-75
2022/01/03 08:26:06;;;;;;;0.43;0.28;;;10.30;85.80;;;;;;5054677;28;20022;-75
2022/01/03 08:28:31;;;;;;;0.20;0.20;;;10.30;85.90;;;;;;5034151;28;20032;-75
2022/01/03 08:30:57;;;;;;;1.23;0.25;;;10.20;85.80;;;;;;5033978;28;20025;-75
2022/01/03 08:33:23;;;;;;;2.38;1.40;;;10.30;86.60;;;;;;5033639;28;20033;-75
2022/01/03 08:35:49;;;;;;;0.22;0.22;;;10.30;85.90;;;;;;5034933;28;20029;-75
2022/01/03 08:38:15;;;;;;;0.10;0.10;;;10.40;85.90;;;;;;5016303;28;20029;-75
2022/01/03 08:40:40;;;;;;;0.75;0.40;;;10.40;85.80;;;;;;5033892;28;20021;-75
2022/01/03 08:43:06;;;;;;;4.07;0.70;;;10.40;85.40;;;;;;5032376;28;20024;-75
2022/01/03 08:45:32;;;;;;;2.10;0.85;;;10.50;85.40;;;;;;5033277;28;20590;-75
2022/01/03 08:47:58;;;;;;;1.77;0.75;;;10.50;85.20;;;;;;5034583;28;20024;-75
2022/01/03 08:50:24;;;;;;;0.10;0.10;;;10.50;85.20;;;;;;5033516;28;20507;-76
2022/01/03 08:52:50;;;;;;;0.47;0.32;;;10.40;85.10;;;;;;5033241;28;20025;-75
2022/01/03 08:55:17;;;;;;;4.72;1.27;;;10.50;84.90;;;;;;5034815;28;20032;-75
2022/01/03 08:57:44;;;;;;;3.28;0.43;;;10.50;85.40;;;;;;5033561;28;20094;-75
2022/01/03 09:00:11;;;;;;;0.20;0.20;;;10.50;85.10;;;;;;5024237;28;20024;-75
2022/01/03 09:02:36;;;;;;;2.25;0.55;;;10.60;84.90;;;;;;5030259;28;20022;-75
2022/01/03 09:05:02;;;;;;;0.10;0.10;;;10.50;84.80;;;;;;5033371;28;20025;-75
2022/01/03 09:07:28;;;;;;;0.40;0.40;;;10.60;85.10;;;;;;5033020;28;20025;-75
2022/01/03 09:09:54;;;;;;;3.60;0.68;;;10.60;84.70;;;;;;5032998;28;20037;-75
2022/01/03 09:12:20;;;;;;;1.65;0.30;;;10.50;84.60;;;;;;5034359;28;20393;-75
2022/01/03 09:14:46;;;;;;;0.75;0.50;;;10.60;84.70;;;;;;5034216;28;20021;-75
2022/01/03 09:17:12;;;;;;;0.10;0.10;;;10.60;84.60;;;;;;5033754;28;20607;-75
2022/01/03 09:19:38;;;;;;;0.25;0.25;;;10.70;84.80;;;;;;5034171;28;20041;-75
2022/01/03 09:22:28;;;;;;;0.10;0.10;;;10.80;84.50;;;;;;5033905;28;20025;-75
2022/01/03 09:28:48;;;;;;;0.10;0.10;;;10.90;84.10;;;;;;5031718;28;20032;-76
2022/01/03 09:30:23;;;;;;;0.70;0.32;;;10.90;83.60;;;;;;5033709;28;20026;-75
2022/01/03 09:32:49;;;;;;;0.28;0.28;;;10.80;84.00;;;;;;5029682;28;20171;-75
2022/01/03 09:35:15;;;;;;;0.57;0.40;;;10.80;84.20;;;;;;5033643;28;20029;-76
2022/01/03 09:37:41;;;;;;;0.45;0.45;;;10.70;83.90;;;;;;5030192;28;20025;-76
2022/01/03 09:40:08;;;;;;;2.05;0.47;;;10.70;84.00;;;;;;5032478;28;20052;-76
2022/01/03 09:42:35;;;;;;;1.17;0.32;;;10.70;84.30;;;;;;5032184;28;20100;-76
2022/01/03 09:45:11;;;;;;;0.20;0.20;;;10.70;84.50;;;;;;5033646;28;20033;-76
2022/01/03 09:47:38;;;;;;;3.05;1.15;;;10.80;84.50;;;;;;5032148;28;20492;-76
2022/01/03 09:50:06;;;;;;;0.20;0.20;;;10.80;84.00;;;;;;5033534;28;20025;-76
2022/01/03 09:52:32;;;;;;;0.28;0.28;;;10.80;84.10;;;;;;5033816;28;20572;-76
2022/01/03 09:55:00;;;;;;;2.65;0.43;;;10.90;83.90;;;;;;5033565;28;20025;-76
2022/01/03 09:57:28;;;;;;;12.23;1.33;;;10.90;84.10;;;;;;5033309;28;20109;-75
2022/01/03 09:59:54;;;;;;;0.30;0.30;;;10.90;83.80;;;;;;5033605;28;20033;-76
2022/01/03 10:02:21;;;;;;;0.10;0.10;;;10.90;83.90;;;;;;5034054;28;20049;-75
2022/01/03 10:04:48;;;;;;;1.25;1.20;;;10.90;83.80;;;;;;5033560;28;20022;-76
2022/01/03 10:07:14;;;;;;;6.88;0.90;;;10.90;83.80;;;;;;5033049;28;20022;-76
2022/01/03 10:09:42;;;;;;;2.85;1.00;;;11.10;83.60;;;;;;5033229;28;20025;-76
2022/01/03 10:12:14;;;;;;;6.72;0.75;;;11.20;83.00;;;;;;5032014;28;20036;-75
2022/01/03 10:14:41;;;;;;;0.30;0.30;;;11.10;82.90;;;;;;5032555;28;20060;-76
2022/01/03 10:17:07;;;;;;;0.10;0.10;;;11.10;83.20;;;;;;5032705;28;20120;-76
2022/01/03 10:19:55;;;;;;;1.67;0.55;;;11.10;82.90;;;;;;5032235;28;20026;-76
2022/01/03 10:22:32;;;;;;;2.17;0.30;;;11.30;82.40;;;;;;5043979;28;20025;-76
2022/01/03 10:25:01;;;;;;;0.10;0.10;;;11.10;82.10;;;;;;5053366;28;20017;-76
2022/01/03 10:27:44;;;;;;;0.43;0.30;;;11.10;81.90;;;;;;5051725;28;20053;-76
2022/01/03 10:30:11;;;;;;;5.13;2.28;;;11.20;82.20;;;;;;5052173;28;20071;-76
2022/01/03 10:32:37;;;;;;;0.50;0.50;;;11.30;81.30;;;;;;5052180;28;20029;-77
2022/01/03 10:35:15;;;;;;;2.08;0.68;;;11.30;81.20;;;;;;5051754;28;20081;-76
2022/01/03 10:37:42;;;;;;;1.00;0.65;;;11.40;80.00;;;;;;5052711;28;20029;-76
2022/01/03 10:40:17;;;;;;;3.00;1.00;;;11.60;79.90;;;;;;5034964;28;20021;-76
2022/01/03 10:42:43;;;;;;;0.30;0.30;;;11.50;78.70;;;;;;5051627;28;20029;-76
2022/01/03 10:45:09;;;;;;;0.38;0.38;;;11.40;79.40;;;;;;5034720;28;20481;-76
2022/01/03 10:47:35;;;;;;;0.20;0.20;;;11.40;80.00;;;;;;5051909;28;20059;-75
2022/01/03 10:50:18;;;;;;;0.32;0.32;;;11.50;79.90;;;;;;5051340;28;20053;-76
2022/01/03 10:52:46;;;;;;;0.38;0.38;;;11.60;79.70;;;;;;5051407;28;20021;-75
2022/01/03 10:55:14;;;;;;;1.75;0.50;;;11.80;78.90;;;;;;5052469;28;20107;-76
2022/01/03 10:58:01;;;;;;;0.45;0.30;;;11.60;78.70;;;;;;5052363;28;20094;-76
2022/01/03 11:00:45;;;;;;;2.40;0.47;;;11.60;79.40;;;;;;5050969;28;20025;-76
2022/01/03 11:05:57;;;;;;;0.47;0.47;;;11.50;79.70;;;;;;5052090;28;20029;-76
2022/01/03 11:11:14;;;;;;;0.17;0.17;;;11.40;80.10;;;;;;5052297;28;20029;-76
2022/01/03 11:13:42;;;;;;;0.20;0.20;;;11.40;80.00;;;;;;5051086;28;20021;-76
2022/01/03 11:16:10;;;;;;;0.20;0.20;;;11.30;80.10;;;;;;5050449;28;20029;-75
2022/01/03 11:18:47;;;;;;;11.93;2.40;;;11.30;80.30;;;;;;5051859;28;20029;-76
2022/01/03 11:21:16;;;;;;;0.20;0.20;;;11.30;80.10;;;;;;5052071;28;20370;-76
2022/01/03 11:23:49;;;;;;;0.20;0.20;;;11.30;80.20;;;;;;5051960;28;20013;-76
2022/01/03 11:26:18;;;;;;;0.20;0.20;;;11.30;79.90;;;;;;5050422;28;20025;-76
2022/01/03 11:28:44;;;;;;;0.10;0.10;;;11.50;79.90;;;;;;5050500;28;20112;-76
2022/01/03 11:31:13;;;;;;;0.10;0.10;;;11.60;79.50;;;;;;5051942;28;20063;-76
2022/01/03 11:33:39;;;;;;;0.73;0.40;;;11.60;78.80;;;;;;5052069;28;20055;-76
2022/01/03 11:36:06;;;;;;;0.17;0.17;;;11.50;78.80;;;;;;5051730;28;20029;-76
2022/01/03 11:38:35;;;;;;;0.30;0.30;;;11.50;78.70;;;;;;5051717;28;20033;-76
2022/01/03 11:41:04;;;;;;;0.35;0.30;;;11.40;78.80;;;;;;5050472;28;20090;-75
2022/01/03 11:43:31;;;;;;;0.30;0.30;;;11.30;79.30;;;;;;5050493;28;20032;-76
2022/01/03 11:45:57;;;;;;;4.20;0.60;;;11.30;79.60;;;;;;5050303;28;20028;-75
2022/01/03 11:48:25;;;;;;;0.10;0.10;;;11.40;79.70;;;;;;5051560;28;20488;-76
2022/01/03 11:50:53;;;;;;;0.52;0.50;;;11.50;79.80;;;;;;5051660;28;20369;-76
2022/01/03 11:53:20;;;;;;;2.50;0.40;;;11.40;79.30;;;;;;5051590;28;20031;-76
2022/01/03 11:55:53;;;;;;;0.20;0.20;;;11.40;79.40;;;;;;5050240;28;20431;-76
2022/01/03 12:04:08;;;;;;;0.30;0.30;;;11.30;79.70;;;;;;5054382;28;20025;-75
2022/01/03 12:06:35;;;;;;;2.40;0.32;;;11.30;79.80;;;;;;5054264;28;20025;-76
2022/01/03 12:09:06;;;;;;;3.50;0.75;;;11.40;79.60;;;;;;5054297;28;20029;-76
2022/01/03 12:11:33;;;;;;;0.30;0.20;;;11.40;79.60;;;;;;5055711;28;20116;-76
2022/01/03 12:14:09;;;;;;;0.20;0.20;;;11.40;79.20;;;;;;5037605;28;20025;-76
2022/01/03 12:16:52;;;;;;;0.50;0.20;;;11.40;79.20;;;;;;5055405;28;20025;-76
2022/01/03 12:19:39;;;;;;;0.77;0.40;;;11.40;79.20;;;;;;5055337;28;20040;-76
2022/01/03 12:22:12;;;;;;;0.20;0.20;;;11.20;79.10;;;;;;5054089;28;20036;-76
2022/01/03 12:24:40;;;;;;;2.30;0.40;;;11.10;79.90;;;;;;5054322;28;20025;-75
2022/01/03 12:27:16;;;;;;;1.55;0.57;;;11.10;80.10;;;;;;5055235;28;20032;-75
2022/01/03 12:29:54;;;;;;;0.80;0.65;;;11.00;79.70;;;;;;5054074;28;20061;-76
2022/01/03 12:32:33;;;;;;;6.70;0.50;;;11.00;80.40;;;;;;5053907;28;20021;-76
2022/01/03 12:35:05;;;;;;;1.10;1.10;;;11.10;80.10;;;;;;5053793;28;20025;-76
2022/01/03 12:37:31;;;;;;;3.97;0.68;;;11.00;79.70;;;;;;5055386;28;20132;-76
2022/01/03 12:40:05;;;;;;;0.40;0.40;;;11.00;79.80;;;;;;5055065;28;20108;-75
2022/01/03 12:42:51;;;;;;;0.20;0.20;;;11.00;80.40;;;;;;5055081;28;20013;-75
2022/01/03 12:45:36;;;;;;;10.88;5.22;;;11.00;80.10;;;;;;5054954;28;20021;-76
2022/01/03 12:48:09;;;;;;;2.08;0.77;;;11.00;80.00;;;;;;5054484;28;20025;-76
2022/01/03 12:50:39;;;;;;;5.68;1.55;;;11.00;79.70;;;;;;5053387;28;20396;-75
2022/01/03 12:53:07;;;;;;;0.43;0.40;;;10.80;79.80;;;;;;5054797;28;20496;-76
2022/01/03 12:55:38;;;;;;;1.50;0.50;;;10.90;80.20;;;;;;5053319;28;20032;-76
2022/01/03 12:58:16;;;;;;;1.38;1.00;;;10.90;80.30;;;;;;5054519;28;20499;-76
2022/01/03 13:01:10;;;;;;;0.28;0.28;;;10.90;80.10;;;;;;5054654;28;20064;-76
2022/01/03 13:03:47;;;;;;;0.45;0.32;;;10.90;80.00;;;;;;5054518;28;20067;-76
2022/01/03 13:06:24;;;;;;;0.20;0.20;;;10.80;80.10;;;;;;5053274;28;20029;-76
2022/01/03 13:08:56;;;;;;;0.20;0.20;;;10.80;80.20;;;;;;5053342;28;20104;-76
2022/01/03 13:11:31;;;;;;;0.10;0.10;;;10.90;80.20;;;;;;5053204;28;20587;-76
2022/01/03 13:14:07;;;;;;;1.45;0.63;;;10.80;80.20;;;;;;5036522;28;20029;-76
2022/01/03 13:17:03;;;;;;;0.30;0.30;;;10.80;80.00;;;;;;5053072;28;20047;-76
2022/01/03 13:19:35;;;;;;;0.10;0.10;;;10.80;79.70;;;;;;5053680;28;20405;-76